Archival Weather

Sydney Intl

Sydney, Australia (YSSY)

Report from: Saturday, March 18, 2023 6:00 AM AEDT
Current time: Sunday, July 14, 2024 12:06 PM AEST

Current weather – Weather history – Daily summaries
Weather forecast

Temperature22.0°C (71.6°F)
Dew point20.0°C (68.0°F)
Winds 4 kts (2.1 m/s, 4.6 mph) Northwest (310°)
Visibility6.2 mi. (10 km)
Clouds Few clouds 1,700 ft. (518 m)
Altimeter30.06 in.Hg (1018 mB)
Relative humidity88 %
Density altitude972 ft. (296 m)
Flight conditions Visual Meteorological Conditions
Raw dataYSSY 171900Z 31004KT 9999 FEW017 22/20 Q1018
An error has occurred. This application may no longer respond until reloaded. Reload 🗙